Alice, Texas
Current Conditions -  °F | °C
As of 2:42 AM on Friday 19 Dec 2014 (Local Time) from KALI Reporting Station
Light Rain Light Rain  
Wind Chill: 69°   Ceiling: 300
Heat Index: 69°   Visibility: 3mi
Dew Point: 67°   Wind: 0mph
Humidity: 93%   Direction: NA
Pressure: 29.95"   Gusts: NA
Location:  27.75°N, 98.06°W
Report Text: KALI 190842Z AUTO 00000KT 3SM -RA BR BKN003 BKN011 OVC014 21/19 A2995 RMK AO2 LTG DSNT E RAB0757E10B16 P0004 T02060194
Loading
Personal Weather Stations






























Interactive Weather Map New forecast layout! Learn more

10-Day Weather Forecast

Advertisements
Track Severe Weather on mobile